sensor_id;sensor_type;location;lat;lon;timestamp;temperature;humidity
7496;DHT22;3789;47.064;15.482;2022-10-15T00:00:23;11.70;99.90
7496;DHT22;3789;47.064;15.482;2022-10-15T00:02:51;11.50;99.90
7496;DHT22;3789;47.064;15.482;2022-10-15T00:08:56;11.20;99.90
7496;DHT22;3789;47.064;15.482;2022-10-15T00:11:28;11.20;99.90
7496;DHT22;3789;47.064;15.482;2022-10-15T00:13:58;11.10;99.90
7496;DHT22;3789;47.064;15.482;2022-10-15T00:16:30;11.10;99.90
7496;DHT22;3789;47.064;15.482;2022-10-15T00:19:02;11.20;99.90
7496;DHT22;3789;47.064;15.482;2022-10-15T00:21:39;11.20;99.90
7496;DHT22;3789;47.064;15.482;2022-10-15T00:24:09;11.20;99.90
7496;DHT22;3789;47.064;15.482;2022-10-15T00:26:41;11.30;99.90
7496;DHT22;3789;47.064;15.482;2022-10-15T00:29:19;11.30;99.90
7496;DHT22;3789;47.064;15.482;2022-10-15T00:31:49;11.20;99.90
7496;DHT22;3789;47.064;15.482;2022-10-15T00:34:32;11.20;99.90
7496;DHT22;3789;47.064;15.482;2022-10-15T00:37:02;11.30;99.90
7496;DHT22;3789;47.064;15.482;2022-10-15T00:39:33;11.30;99.90
7496;DHT22;3789;47.064;15.482;2022-10-15T00:42:11;11.40;99.90
7496;DHT22;3789;47.064;15.482;2022-10-15T00:44:53;11.40;99.90
7496;DHT22;3789;47.064;15.482;2022-10-15T00:47:36;11.30;99.90
7496;DHT22;3789;47.064;15.482;2022-10-15T00:50:17;11.20;99.90
7496;DHT22;3789;47.064;15.482;2022-10-15T00:53:14;11.00;99.90
7496;DHT22;3789;47.064;15.482;2022-10-15T00:55:42;11.00;99.90
7496;DHT22;3789;47.064;15.482;2022-10-15T00:58:19;11.00;99.90
7496;DHT22;3789;47.064;15.482;2022-10-15T01:00:58;11.00;99.90
7496;DHT22;3789;47.064;15.482;2022-10-15T01:03:36;10.90;99.90
7496;DHT22;3789;47.064;15.482;2022-10-15T01:06:08;10.90;99.90
7496;DHT22;3789;47.064;15.482;2022-10-15T01:08:37;10.90;99.90
7496;DHT22;3789;47.064;15.482;2022-10-15T01:17:20;10.90;99.90
7496;DHT22;3789;47.064;15.482;2022-10-15T01:32:24;10.90;99.90
7496;DHT22;3789;47.064;15.482;2022-10-15T01:37:53;11.00;99.90
7496;DHT22;3789;47.064;15.482;2022-10-15T01:40:41;11.10;99.90
7496;DHT22;3789;47.064;15.482;2022-10-15T01:43:14;11.10;99.90
7496;DHT22;3789;47.064;15.482;2022-10-15T01:45:51;11.10;99.90
7496;DHT22;3789;47.064;15.482;2022-10-15T01:48:21;11.10;99.90
7496;DHT22;3789;47.064;15.482;2022-10-15T01:50:55;11.10;99.90
7496;DHT22;3789;47.064;15.482;2022-10-15T01:53:25;11.10;99.90
7496;DHT22;3789;47.064;15.482;2022-10-15T01:55:59;11.10;99.90
7496;DHT22;3789;47.064;15.482;2022-10-15T01:58:29;11.10;99.90
7496;DHT22;3789;47.064;15.482;2022-10-15T02:00:57;11.00;99.90
7496;DHT22;3789;47.064;15.482;2022-10-15T02:03:25;11.00;99.90
7496;DHT22;3789;47.064;15.482;2022-10-15T02:06:02;10.90;99.90
7496;DHT22;3789;47.064;15.482;2022-10-15T02:11:11;10.80;99.90
7496;DHT22;3789;47.064;15.482;2022-10-15T02:14:02;10.70;99.90
7496;DHT22;3789;47.064;15.482;2022-10-15T02:16:39;10.60;99.90
7496;DHT22;3789;47.064;15.482;2022-10-15T02:19:34;10.70;99.90
7496;DHT22;3789;47.064;15.482;2022-10-15T02:25:05;10.90;99.90
7496;DHT22;3789;47.064;15.482;2022-10-15T02:27:35;10.90;99.90
7496;DHT22;3789;47.064;15.482;2022-10-15T02:30:06;10.90;99.90
7496;DHT22;3789;47.064;15.482;2022-10-15T02:32:36;10.80;99.90
7496;DHT22;3789;47.064;15.482;2022-10-15T02:35:07;10.80;99.90
7496;DHT22;3789;47.064;15.482;2022-10-15T02:37:36;10.90;99.90
7496;DHT22;3789;47.064;15.482;2022-10-15T02:40:06;10.90;99.90
7496;DHT22;3789;47.064;15.482;2022-10-15T02:42:33;10.90;99.90
7496;DHT22;3789;47.064;15.482;2022-10-15T02:45:00;11.00;99.90
7496;DHT22;3789;47.064;15.482;2022-10-15T02:47:27;10.90;99.90
7496;DHT22;3789;47.064;15.482;2022-10-15T02:49:54;10.90;99.90
7496;DHT22;3789;47.064;15.482;2022-10-15T02:52:21;11.00;99.90
7496;DHT22;3789;47.064;15.482;2022-10-15T02:54:48;11.00;99.90
7496;DHT22;3789;47.064;15.482;2022-10-15T02:57:15;11.00;99.90
7496;DHT22;3789;47.064;15.482;2022-10-15T02:59:43;11.10;99.90
7496;DHT22;3789;47.064;15.482;2022-10-15T03:02:10;11.10;99.90
7496;DHT22;3789;47.064;15.482;2022-10-15T03:04:44;11.10;99.90
7496;DHT22;3789;47.064;15.482;2022-10-15T03:07:28;11.10;99.90
7496;DHT22;3789;47.064;15.482;2022-10-15T03:09:57;11.20;99.90
7496;DHT22;3789;47.064;15.482;2022-10-15T03:12:24;11.20;99.90
7496;DHT22;3789;47.064;15.482;2022-10-15T03:14:52;11.20;99.90
7496;DHT22;3789;47.064;15.482;2022-10-15T03:17:20;11.20;99.90
7496;DHT22;3789;47.064;15.482;2022-10-15T03:19:47;11.10;99.90
7496;DHT22;3789;47.064;15.482;2022-10-15T03:22:14;11.10;99.90
7496;DHT22;3789;47.064;15.482;2022-10-15T03:24:42;11.10;99.90
7496;DHT22;3789;47.064;15.482;2022-10-15T03:27:09;11.10;99.90
7496;DHT22;3789;47.064;15.482;2022-10-15T03:29:36;11.10;99.90
7496;DHT22;3789;47.064;15.482;2022-10-15T03:32:03;11.10;99.90
7496;DHT22;3789;47.064;15.482;2022-10-15T03:34:30;11.10;99.90
7496;DHT22;3789;47.064;15.482;2022-10-15T03:36:57;11.10;99.90
7496;DHT22;3789;47.064;15.482;2022-10-15T03:39:24;11.00;99.90
7496;DHT22;3789;47.064;15.482;2022-10-15T03:41:52;10.90;99.90
7496;DHT22;3789;47.064;15.482;2022-10-15T03:44:20;11.00;99.90
7496;DHT22;3789;47.064;15.482;2022-10-15T03:46:47;10.90;99.90
7496;DHT22;3789;47.064;15.482;2022-10-15T03:49:14;10.80;99.90
7496;DHT22;3789;47.064;15.482;2022-10-15T03:51:41;10.80;99.90
7496;DHT22;3789;47.064;15.482;2022-10-15T03:54:08;10.80;99.90
7496;DHT22;3789;47.064;15.482;2022-10-15T03:56:35;10.80;99.90
7496;DHT22;3789;47.064;15.482;2022-10-15T03:59:03;10.80;99.90
7496;DHT22;3789;47.064;15.482;2022-10-15T04:01:30;10.90;99.90
7496;DHT22;3789;47.064;15.482;2022-10-15T04:03:57;10.80;99.90
7496;DHT22;3789;47.064;15.482;2022-10-15T04:06:24;10.80;99.90
7496;DHT22;3789;47.064;15.482;2022-10-15T04:08:51;10.80;99.90
7496;DHT22;3789;47.064;15.482;2022-10-15T04:11:19;10.80;99.90
7496;DHT22;3789;47.064;15.482;2022-10-15T04:13:50;10.70;99.90
7496;DHT22;3789;47.064;15.482;2022-10-15T04:16:17;10.80;99.90
7496;DHT22;3789;47.064;15.482;2022-10-15T04:18:44;10.80;99.90
7496;DHT22;3789;47.064;15.482;2022-10-15T04:21:11;10.90;99.90
7496;DHT22;3789;47.064;15.482;2022-10-15T04:23:38;10.90;99.90
7496;DHT22;3789;47.064;15.482;2022-10-15T04:26:06;10.90;99.90
7496;DHT22;3789;47.064;15.482;2022-10-15T04:28:33;10.90;99.90
7496;DHT22;3789;47.064;15.482;2022-10-15T04:31:01;11.00;99.90
7496;DHT22;3789;47.064;15.482;2022-10-15T04:33:28;11.00;99.90
7496;DHT22;3789;47.064;15.482;2022-10-15T04:36:04;11.00;99.90
7496;DHT22;3789;47.064;15.482;2022-10-15T04:38:32;11.10;99.90
7496;DHT22;3789;47.064;15.482;2022-10-15T04:41:02;11.10;99.90
7496;DHT22;3789;47.064;15.482;2022-10-15T04:43:30;11.10;99.90
7496;DHT22;3789;47.064;15.482;2022-10-15T04:45:58;11.00;99.90
7496;DHT22;3789;47.064;15.482;2022-10-15T04:48:30;11.00;99.90
7496;DHT22;3789;47.064;15.482;2022-10-15T04:51:07;11.00;99.90
7496;DHT22;3789;47.064;15.482;2022-10-15T04:53:35;10.80;99.90
7496;DHT22;3789;47.064;15.482;2022-10-15T04:56:11;10.80;99.90
7496;DHT22;3789;47.064;15.482;2022-10-15T04:58:41;10.70;99.90
7496;DHT22;3789;47.064;15.482;2022-10-15T05:01:10;10.60;99.90
7496;DHT22;3789;47.064;15.482;2022-10-15T05:03:40;10.70;99.90
7496;DHT22;3789;47.064;15.482;2022-10-15T05:06:17;10.80;99.90
7496;DHT22;3789;47.064;15.482;2022-10-15T05:08:45;10.80;99.90
7496;DHT22;3789;47.064;15.482;2022-10-15T05:11:19;10.80;99.90
7496;DHT22;3789;47.064;15.482;2022-10-15T05:13:46;10.80;99.90
7496;DHT22;3789;47.064;15.482;2022-10-15T05:16:19;10.90;99.90
7496;DHT22;3789;47.064;15.482;2022-10-15T05:18:49;10.90;99.90
7496;DHT22;3789;47.064;15.482;2022-10-15T05:21:18;10.90;99.90
7496;DHT22;3789;47.064;15.482;2022-10-15T05:23:45;10.90;99.90
7496;DHT22;3789;47.064;15.482;2022-10-15T05:26:16;10.80;99.90
7496;DHT22;3789;47.064;15.482;2022-10-15T05:28:43;10.70;99.90
7496;DHT22;3789;47.064;15.482;2022-10-15T05:31:12;10.60;99.90
7496;DHT22;3789;47.064;15.482;2022-10-15T05:33:48;10.50;99.90
7496;DHT22;3789;47.064;15.482;2022-10-15T05:36:20;10.50;99.90
7496;DHT22;3789;47.064;15.482;2022-10-15T05:38:50;10.40;99.90
7496;DHT22;3789;47.064;15.482;2022-10-15T05:41:18;10.50;99.90
7496;DHT22;3789;47.064;15.482;2022-10-15T05:43:50;10.50;99.90
7496;DHT22;3789;47.064;15.482;2022-10-15T05:46:18;10.60;99.90
7496;DHT22;3789;47.064;15.482;2022-10-15T05:48:53;10.70;99.90
7496;DHT22;3789;47.064;15.482;2022-10-15T05:51:21;10.80;99.90
7496;DHT22;3789;47.064;15.482;2022-10-15T05:53:57;10.80;99.90
7496;DHT22;3789;47.064;15.482;2022-10-15T05:56:25;10.90;99.90
7496;DHT22;3789;47.064;15.482;2022-10-15T05:58:53;10.90;99.90
7496;DHT22;3789;47.064;15.482;2022-10-15T06:01:21;11.00;99.90
7496;DHT22;3789;47.064;15.482;2022-10-15T06:03:48;11.00;99.90
7496;DHT22;3789;47.064;15.482;2022-10-15T06:06:21;11.00;99.90
7496;DHT22;3789;47.064;15.482;2022-10-15T06:08:49;11.10;99.90
7496;DHT22;3789;47.064;15.482;2022-10-15T06:11:16;11.10;99.90
7496;DHT22;3789;47.064;15.482;2022-10-15T06:13:44;11.20;99.90
7496;DHT22;3789;47.064;15.482;2022-10-15T06:16:13;11.20;99.90
7496;DHT22;3789;47.064;15.482;2022-10-15T06:18:46;11.30;99.90
7496;DHT22;3789;47.064;15.482;2022-10-15T06:21:13;11.40;99.90
7496;DHT22;3789;47.064;15.482;2022-10-15T06:23:40;11.40;99.90
7496;DHT22;3789;47.064;15.482;2022-10-15T06:26:09;11.30;99.90
7496;DHT22;3789;47.064;15.482;2022-10-15T06:28:37;11.20;99.90
7496;DHT22;3789;47.064;15.482;2022-10-15T06:31:05;11.30;99.90
7496;DHT22;3789;47.064;15.482;2022-10-15T06:33:34;11.30;99.90
7496;DHT22;3789;47.064;15.482;2022-10-15T06:36:07;11.40;99.90
7496;DHT22;3789;47.064;15.482;2022-10-15T06:38:35;11.50;99.90
7496;DHT22;3789;47.064;15.482;2022-10-15T06:41:06;11.50;99.90
7496;DHT22;3789;47.064;15.482;2022-10-15T06:43:34;11.50;99.90
7496;DHT22;3789;47.064;15.482;2022-10-15T06:46:03;11.60;99.90
7496;DHT22;3789;47.064;15.482;2022-10-15T06:48:31;11.60;99.90
7496;DHT22;3789;47.064;15.482;2022-10-15T06:50:59;11.60;99.90
7496;DHT22;3789;47.064;15.482;2022-10-15T06:53:28;11.60;99.90
7496;DHT22;3789;47.064;15.482;2022-10-15T06:56:00;11.70;99.90
7496;DHT22;3789;47.064;15.482;2022-10-15T06:58:28;11.70;99.90
7496;DHT22;3789;47.064;15.482;2022-10-15T07:01:02;11.80;99.90
7496;DHT22;3789;47.064;15.482;2022-10-15T07:03:30;11.80;99.90
7496;DHT22;3789;47.064;15.482;2022-10-15T07:06:05;11.90;99.90
7496;DHT22;3789;47.064;15.482;2022-10-15T07:08:33;12.00;99.90
7496;DHT22;3789;47.064;15.482;2022-10-15T07:11:02;12.00;99.90
7496;DHT22;3789;47.064;15.482;2022-10-15T07:13:30;12.00;99.90
7496;DHT22;3789;47.064;15.482;2022-10-15T07:15:57;12.00;99.90
7496;DHT22;3789;47.064;15.482;2022-10-15T07:18:24;12.00;99.90
7496;DHT22;3789;47.064;15.482;2022-10-15T07:20:51;12.10;99.90
7496;DHT22;3789;47.064;15.482;2022-10-15T07:23:18;12.20;99.90
7496;DHT22;3789;47.064;15.482;2022-10-15T07:25:52;12.20;99.90
7496;DHT22;3789;47.064;15.482;2022-10-15T07:28:19;12.30;99.90
7496;DHT22;3789;47.064;15.482;2022-10-15T07:30:47;12.30;99.90
7496;DHT22;3789;47.064;15.482;2022-10-15T07:33:14;12.30;99.90
7496;DHT22;3789;47.064;15.482;2022-10-15T07:35:41;12.20;99.90
7496;DHT22;3789;47.064;15.482;2022-10-15T07:38:08;12.20;99.90
7496;DHT22;3789;47.064;15.482;2022-10-15T07:40:35;12.30;99.90
7496;DHT22;3789;47.064;15.482;2022-10-15T07:43:02;12.40;99.90
7496;DHT22;3789;47.064;15.482;2022-10-15T07:45:29;12.50;99.90
7496;DHT22;3789;47.064;15.482;2022-10-15T07:47:56;12.50;99.90
7496;DHT22;3789;47.064;15.482;2022-10-15T07:50:23;12.50;99.90
7496;DHT22;3789;47.064;15.482;2022-10-15T07:52:56;12.50;99.90
7496;DHT22;3789;47.064;15.482;2022-10-15T07:55:23;12.60;99.90
7496;DHT22;3789;47.064;15.482;2022-10-15T07:57:56;12.60;99.90
7496;DHT22;3789;47.064;15.482;2022-10-15T08:00:28;12.60;99.90
7496;DHT22;3789;47.064;15.482;2022-10-15T08:02:56;12.60;99.90
7496;DHT22;3789;47.064;15.482;2022-10-15T08:05:24;12.70;99.90
7496;DHT22;3789;47.064;15.482;2022-10-15T08:07:53;12.60;99.90
7496;DHT22;3789;47.064;15.482;2022-10-15T08:10:28;12.60;99.90
7496;DHT22;3789;47.064;15.482;2022-10-15T08:12:56;12.60;99.90
7496;DHT22;3789;47.064;15.482;2022-10-15T08:15:32;12.70;99.90
7496;DHT22;3789;47.064;15.482;2022-10-15T08:18:02;12.70;99.90
7496;DHT22;3789;47.064;15.482;2022-10-15T08:20:33;12.80;99.90
7496;DHT22;3789;47.064;15.482;2022-10-15T08:23:00;12.90;99.90
7496;DHT22;3789;47.064;15.482;2022-10-15T08:25:32;13.00;99.90
7496;DHT22;3789;47.064;15.482;2022-10-15T08:28:01;13.10;99.90
7496;DHT22;3789;47.064;15.482;2022-10-15T08:30:38;13.10;99.90
7496;DHT22;3789;47.064;15.482;2022-10-15T08:33:06;13.10;99.90
7496;DHT22;3789;47.064;15.482;2022-10-15T08:35:35;13.10;99.90
7496;DHT22;3789;47.064;15.482;2022-10-15T08:38:05;13.20;99.90
7496;DHT22;3789;47.064;15.482;2022-10-15T08:40:32;13.20;99.90
7496;DHT22;3789;47.064;15.482;2022-10-15T08:43:01;13.20;99.90
7496;DHT22;3789;47.064;15.482;2022-10-15T08:45:37;13.20;99.90
7496;DHT22;3789;47.064;15.482;2022-10-15T08:48:22;13.20;99.90
7496;DHT22;3789;47.064;15.482;2022-10-15T08:51:15;13.20;99.90
7496;DHT22;3789;47.064;15.482;2022-10-15T08:53:53;13.20;99.90
7496;DHT22;3789;47.064;15.482;2022-10-15T08:57:02;13.20;99.90
7496;DHT22;3789;47.064;15.482;2022-10-15T08:59:50;13.30;99.90
7496;DHT22;3789;47.064;15.482;2022-10-15T09:02:28;13.30;99.90
7496;DHT22;3789;47.064;15.482;2022-10-15T09:05:32;13.40;99.90
7496;DHT22;3789;47.064;15.482;2022-10-15T09:10:51;13.40;99.90
7496;DHT22;3789;47.064;15.482;2022-10-15T09:13:45;13.40;99.90
7496;DHT22;3789;47.064;15.482;2022-10-15T09:16:43;13.50;99.90
7496;DHT22;3789;47.064;15.482;2022-10-15T09:19:23;13.70;99.90
7496;DHT22;3789;47.064;15.482;2022-10-15T09:21:54;13.90;99.90
7496;DHT22;3789;47.064;15.482;2022-10-15T09:24:26;14.00;99.90
7496;DHT22;3789;47.064;15.482;2022-10-15T09:27:34;14.10;99.90
7496;DHT22;3789;47.064;15.482;2022-10-15T09:30:31;14.40;99.90
7496;DHT22;3789;47.064;15.482;2022-10-15T09:39:03;14.60;99.90
7496;DHT22;3789;47.064;15.482;2022-10-15T09:44:47;14.70;99.90
7496;DHT22;3789;47.064;15.482;2022-10-15T09:47:28;14.80;99.90
7496;DHT22;3789;47.064;15.482;2022-10-15T09:50:00;14.80;99.90
7496;DHT22;3789;47.064;15.482;2022-10-15T09:53:02;14.90;99.90
7496;DHT22;3789;47.064;15.482;2022-10-15T09:58:59;15.20;99.90
7496;DHT22;3789;47.064;15.482;2022-10-15T10:01:31;15.30;99.90
7496;DHT22;3789;47.064;15.482;2022-10-15T10:04:32;15.30;99.90
7496;DHT22;3789;47.064;15.482;2022-10-15T10:07:07;15.50;99.90
7496;DHT22;3789;47.064;15.482;2022-10-15T10:09:57;15.70;99.90
7496;DHT22;3789;47.064;15.482;2022-10-15T10:12:30;15.90;99.90
7496;DHT22;3789;47.064;15.482;2022-10-15T10:15:34;15.80;99.90
7496;DHT22;3789;47.064;15.482;2022-10-15T10:18:04;16.00;99.90
7496;DHT22;3789;47.064;15.482;2022-10-15T10:20:36;15.90;99.90
7496;DHT22;3789;47.064;15.482;2022-10-15T10:23:27;15.90;99.90
7496;DHT22;3789;47.064;15.482;2022-10-15T10:26:07;15.80;99.90
7496;DHT22;3789;47.064;15.482;2022-10-15T10:28:55;15.20;99.90
7496;DHT22;3789;47.064;15.482;2022-10-15T10:31:43;12.90;99.90
7496;DHT22;3789;47.064;15.482;2022-10-15T10:34:17;11.00;99.90
7496;DHT22;3789;47.064;15.482;2022-10-15T10:37:03;10.10;99.90
7496;DHT22;3789;47.064;15.482;2022-10-15T10:39:43;9.70;99.90
7496;DHT22;3789;47.064;15.482;2022-10-15T10:42:32;9.40;99.90
7496;DHT22;3789;47.064;15.482;2022-10-15T10:45:21;9.80;99.90
7496;DHT22;3789;47.064;15.482;2022-10-15T10:47:51;11.00;99.90
7496;DHT22;3789;47.064;15.482;2022-10-15T10:50:32;12.00;99.90
7496;DHT22;3789;47.064;15.482;2022-10-15T10:53:30;12.90;99.90
7496;DHT22;3789;47.064;15.482;2022-10-15T10:56:05;13.60;99.90
7496;DHT22;3789;47.064;15.482;2022-10-15T10:58:43;14.20;99.90
7496;DHT22;3789;47.064;15.482;2022-10-15T11:01:16;14.60;99.90
7496;DHT22;3789;47.064;15.482;2022-10-15T11:03:45;15.00;99.90
7496;DHT22;3789;47.064;15.482;2022-10-15T11:06:49;15.30;99.90
7496;DHT22;3789;47.064;15.482;2022-10-15T11:10:10;15.60;99.90
7496;DHT22;3789;47.064;15.482;2022-10-15T11:18:55;16.30;99.90
7496;DHT22;3789;47.064;15.482;2022-10-15T11:22:06;16.20;99.90
7496;DHT22;3789;47.064;15.482;2022-10-15T11:25:04;16.30;99.90
7496;DHT22;3789;47.064;15.482;2022-10-15T11:34:07;16.50;99.90
7496;DHT22;3789;47.064;15.482;2022-10-15T11:37:24;16.60;99.90
7496;DHT22;3789;47.064;15.482;2022-10-15T11:44:01;16.80;99.90
7496;DHT22;3789;47.064;15.482;2022-10-15T11:55:40;16.80;99.90
7496;DHT22;3789;47.064;15.482;2022-10-15T11:58:34;16.70;99.90
7496;DHT22;3789;47.064;15.482;2022-10-15T12:01:49;16.70;99.90
7496;DHT22;3789;47.064;15.482;2022-10-15T12:07:05;16.70;99.90
7496;DHT22;3789;47.064;15.482;2022-10-15T12:09:38;16.60;99.90
7496;DHT22;3789;47.064;15.482;2022-10-15T12:12:30;16.40;99.90
7496;DHT22;3789;47.064;15.482;2022-10-15T12:18:44;16.50;99.90
7496;DHT22;3789;47.064;15.482;2022-10-15T12:24:48;16.50;99.90
7496;DHT22;3789;47.064;15.482;2022-10-15T12:27:27;16.50;99.90
7496;DHT22;3789;47.064;15.482;2022-10-15T12:32:44;16.40;99.90
7496;DHT22;3789;47.064;15.482;2022-10-15T12:35:49;16.40;99.90
7496;DHT22;3789;47.064;15.482;2022-10-15T12:38:25;16.20;99.90
7496;DHT22;3789;47.064;15.482;2022-10-15T12:41:01;16.10;99.90
7496;DHT22;3789;47.064;15.482;2022-10-15T12:43:47;16.00;99.90
7496;DHT22;3789;47.064;15.482;2022-10-15T12:46:21;16.10;99.90
7496;DHT22;3789;47.064;15.482;2022-10-15T12:55:36;16.60;99.90
7496;DHT22;3789;47.064;15.482;2022-10-15T12:58:46;16.60;99.90
7496;DHT22;3789;47.064;15.482;2022-10-15T13:06:25;16.80;99.90
7496;DHT22;3789;47.064;15.482;2022-10-15T13:11:51;16.50;99.90
7496;DHT22;3789;47.064;15.482;2022-10-15T13:14:41;16.50;99.90
7496;DHT22;3789;47.064;15.482;2022-10-15T13:17:22;16.40;99.90
7496;DHT22;3789;47.064;15.482;2022-10-15T13:20:20;16.60;99.90
7496;DHT22;3789;47.064;15.482;2022-10-15T13:26:23;16.60;99.90
7496;DHT22;3789;47.064;15.482;2022-10-15T13:29:02;16.60;99.90
7496;DHT22;3789;47.064;15.482;2022-10-15T13:31:36;16.60;99.90
7496;DHT22;3789;47.064;15.482;2022-10-15T13:34:32;16.60;99.90
7496;DHT22;3789;47.064;15.482;2022-10-15T13:37:04;16.60;99.90
7496;DHT22;3789;47.064;15.482;2022-10-15T13:39:39;16.70;99.90
7496;DHT22;3789;47.064;15.482;2022-10-15T13:42:22;16.70;99.90
7496;DHT22;3789;47.064;15.482;2022-10-15T13:45:17;16.70;99.90
7496;DHT22;3789;47.064;15.482;2022-10-15T13:47:51;16.80;99.90
7496;DHT22;3789;47.064;15.482;2022-10-15T13:50:29;16.80;99.90
7496;DHT22;3789;47.064;15.482;2022-10-15T13:55:37;16.90;99.90
7496;DHT22;3789;47.064;15.482;2022-10-15T14:00:38;16.90;99.90
7496;DHT22;3789;47.064;15.482;2022-10-15T14:03:36;16.90;99.90
7496;DHT22;3789;47.064;15.482;2022-10-15T14:06:28;16.70;99.90
7496;DHT22;3789;47.064;15.482;2022-10-15T14:09:10;16.80;99.90
7496;DHT22;3789;47.064;15.482;2022-10-15T14:11:44;16.70;99.90
7496;DHT22;3789;47.064;15.482;2022-10-15T14:14:37;16.60;99.90
7496;DHT22;3789;47.064;15.482;2022-10-15T14:17:20;16.70;99.90
7496;DHT22;3789;47.064;15.482;2022-10-15T14:20:00;16.70;99.90
7496;DHT22;3789;47.064;15.482;2022-10-15T14:22:50;16.60;99.90
7496;DHT22;3789;47.064;15.482;2022-10-15T14:25:23;16.60;99.90
7496;DHT22;3789;47.064;15.482;2022-10-15T14:27:56;16.50;99.90
7496;DHT22;3789;47.064;15.482;2022-10-15T14:30:34;16.60;99.90
7496;DHT22;3789;47.064;15.482;2022-10-15T14:33:29;16.60;99.90
7496;DHT22;3789;47.064;15.482;2022-10-15T14:36:39;16.40;99.90
7496;DHT22;3789;47.064;15.482;2022-10-15T14:39:35;16.20;99.90
7496;DHT22;3789;47.064;15.482;2022-10-15T14:42:06;16.10;99.90
7496;DHT22;3789;47.064;15.482;2022-10-15T14:47:48;15.90;99.90
7496;DHT22;3789;47.064;15.482;2022-10-15T14:50:20;15.80;99.90
7496;DHT22;3789;47.064;15.482;2022-10-15T14:52:51;15.80;99.90
7496;DHT22;3789;47.064;15.482;2022-10-15T14:55:33;15.90;99.90
7496;DHT22;3789;47.064;15.482;2022-10-15T14:58:13;15.80;99.90
7496;DHT22;3789;47.064;15.482;2022-10-15T15:00:58;15.60;99.90
7496;DHT22;3789;47.064;15.482;2022-10-15T15:03:41;15.60;99.90
7496;DHT22;3789;47.064;15.482;2022-10-15T15:06:10;15.60;99.90
7496;DHT22;3789;47.064;15.482;2022-10-15T15:08:41;15.60;99.90
7496;DHT22;3789;47.064;15.482;2022-10-15T15:11:35;15.60;99.90
7496;DHT22;3789;47.064;15.482;2022-10-15T15:14:19;15.50;99.90
7496;DHT22;3789;47.064;15.482;2022-10-15T15:16:50;15.50;99.90
7496;DHT22;3789;47.064;15.482;2022-10-15T15:19:27;15.40;99.90
7496;DHT22;3789;47.064;15.482;2022-10-15T15:21:55;15.30;99.90
7496;DHT22;3789;47.064;15.482;2022-10-15T15:24:23;15.30;99.90
7496;DHT22;3789;47.064;15.482;2022-10-15T15:26:52;15.20;99.90
7496;DHT22;3789;47.064;15.482;2022-10-15T15:29:21;15.10;99.90
7496;DHT22;3789;47.064;15.482;2022-10-15T15:31:50;15.10;99.90
7496;DHT22;3789;47.064;15.482;2022-10-15T15:34:19;15.10;99.90
7496;DHT22;3789;47.064;15.482;2022-10-15T15:36:47;15.00;99.90
7496;DHT22;3789;47.064;15.482;2022-10-15T15:39:17;15.00;99.90
7496;DHT22;3789;47.064;15.482;2022-10-15T15:41:52;14.90;99.90
7496;DHT22;3789;47.064;15.482;2022-10-15T15:44:22;14.80;99.90
7496;DHT22;3789;47.064;15.482;2022-10-15T15:46:53;14.80;99.90
7496;DHT22;3789;47.064;15.482;2022-10-15T15:49:24;14.70;99.90
7496;DHT22;3789;47.064;15.482;2022-10-15T15:51:52;14.80;99.90
7496;DHT22;3789;47.064;15.482;2022-10-15T15:54:22;14.70;99.90
7496;DHT22;3789;47.064;15.482;2022-10-15T15:56:49;14.70;99.90
7496;DHT22;3789;47.064;15.482;2022-10-15T15:59:17;14.70;99.90
7496;DHT22;3789;47.064;15.482;2022-10-15T16:01:48;14.70;99.90
7496;DHT22;3789;47.064;15.482;2022-10-15T16:04:21;14.70;99.90
7496;DHT22;3789;47.064;15.482;2022-10-15T16:06:50;14.60;99.90
7496;DHT22;3789;47.064;15.482;2022-10-15T16:09:19;14.60;99.90
7496;DHT22;3789;47.064;15.482;2022-10-15T16:11:50;14.50;99.90
7496;DHT22;3789;47.064;15.482;2022-10-15T16:14:19;14.50;99.90
7496;DHT22;3789;47.064;15.482;2022-10-15T16:16:51;14.40;99.90
7496;DHT22;3789;47.064;15.482;2022-10-15T16:19:20;14.40;99.90
7496;DHT22;3789;47.064;15.482;2022-10-15T16:21:48;14.40;99.90
7496;DHT22;3789;47.064;15.482;2022-10-15T16:24:17;14.40;99.90
7496;DHT22;3789;47.064;15.482;2022-10-15T16:26:45;14.40;99.90
7496;DHT22;3789;47.064;15.482;2022-10-15T16:29:15;14.30;99.90
7496;DHT22;3789;47.064;15.482;2022-10-15T16:31:45;14.30;99.90
7496;DHT22;3789;47.064;15.482;2022-10-15T16:34:14;14.20;99.90
7496;DHT22;3789;47.064;15.482;2022-10-15T16:36:42;14.10;99.90
7496;DHT22;3789;47.064;15.482;2022-10-15T16:39:12;14.00;99.90
7496;DHT22;3789;47.064;15.482;2022-10-15T16:41:40;13.90;99.90
7496;DHT22;3789;47.064;15.482;2022-10-15T16:44:12;13.80;99.90
7496;DHT22;3789;47.064;15.482;2022-10-15T16:46:41;13.70;99.90
7496;DHT22;3789;47.064;15.482;2022-10-15T16:49:11;13.60;99.90
7496;DHT22;3789;47.064;15.482;2022-10-15T16:51:38;13.60;99.90
7496;DHT22;3789;47.064;15.482;2022-10-15T16:54:16;13.60;99.90
7496;DHT22;3789;47.064;15.482;2022-10-15T16:56:43;13.60;99.90
7496;DHT22;3789;47.064;15.482;2022-10-15T16:59:21;13.60;99.90
7496;DHT22;3789;47.064;15.482;2022-10-15T17:01:58;13.60;99.90
7496;DHT22;3789;47.064;15.482;2022-10-15T17:04:29;13.60;99.90
7496;DHT22;3789;47.064;15.482;2022-10-15T17:07:05;13.50;99.90
7496;DHT22;3789;47.064;15.482;2022-10-15T17:09:34;13.40;99.90
7496;DHT22;3789;47.064;15.482;2022-10-15T17:12:05;13.30;99.90
7496;DHT22;3789;47.064;15.482;2022-10-15T17:14:34;13.30;99.90
7496;DHT22;3789;47.064;15.482;2022-10-15T17:17:09;13.20;99.90
7496;DHT22;3789;47.064;15.482;2022-10-15T17:19:41;13.10;99.90
7496;DHT22;3789;47.064;15.482;2022-10-15T17:22:10;13.10;99.90
7496;DHT22;3789;47.064;15.482;2022-10-15T17:24:39;13.10;99.90
7496;DHT22;3789;47.064;15.482;2022-10-15T17:27:07;13.10;99.90
7496;DHT22;3789;47.064;15.482;2022-10-15T17:29:39;13.10;99.90
7496;DHT22;3789;47.064;15.482;2022-10-15T17:32:07;13.10;99.90
7496;DHT22;3789;47.064;15.482;2022-10-15T17:34:36;13.00;99.90
7496;DHT22;3789;47.064;15.482;2022-10-15T17:37:07;13.00;99.90
7496;DHT22;3789;47.064;15.482;2022-10-15T17:39:37;13.00;99.90
7496;DHT22;3789;47.064;15.482;2022-10-15T17:42:12;12.90;99.90
7496;DHT22;3789;47.064;15.482;2022-10-15T17:44:43;12.90;99.90
7496;DHT22;3789;47.064;15.482;2022-10-15T17:47:12;12.90;99.90
7496;DHT22;3789;47.064;15.482;2022-10-15T17:49:43;12.90;99.90
7496;DHT22;3789;47.064;15.482;2022-10-15T17:52:12;12.90;99.90
7496;DHT22;3789;47.064;15.482;2022-10-15T17:54:39;12.90;99.90
7496;DHT22;3789;47.064;15.482;2022-10-15T17:57:09;12.90;99.90
7496;DHT22;3789;47.064;15.482;2022-10-15T17:59:36;13.00;99.90
7496;DHT22;3789;47.064;15.482;2022-10-15T18:02:03;13.00;99.90
7496;DHT22;3789;47.064;15.482;2022-10-15T18:04:32;13.00;99.90
7496;DHT22;3789;47.064;15.482;2022-10-15T18:07:05;13.00;99.90
7496;DHT22;3789;47.064;15.482;2022-10-15T18:09:37;13.00;99.90
7496;DHT22;3789;47.064;15.482;2022-10-15T18:12:07;13.00;99.90
7496;DHT22;3789;47.064;15.482;2022-10-15T18:14:44;13.00;99.90
7496;DHT22;3789;47.064;15.482;2022-10-15T18:17:16;12.90;99.90
7496;DHT22;3789;47.064;15.482;2022-10-15T18:19:45;12.90;99.90
7496;DHT22;3789;47.064;15.482;2022-10-15T18:22:17;12.80;99.90